Briefing drone pour Saint-marcellin

Rechercher une autre localisation

Conditions de vol :


Nous sommes le : Mardi 24 mai 2022
Il est 01:48 UTC (03:48 LT)

Lever de soleil : 03:33 UTC (05:33 LT)
Coucher de soleil : 19:37 UTC (21:37 LT)

Météo

L'essentiel des conditions de vol

VIGILANCE MÉTÉO FRANCE - Isère (38)
Vigilance Jaune : Orages
CARTE TEMSI
CARTES DES FRONTS
METAR de LFLS
LFLS 240130Z AUTO 00000KT CAVOK 15/13 Q1009

Date d'émission: 24/05/2022
Heure d'émission: 01:30 UTC
Vent: Calme
Visibilité horizontale: > 10 km
Plafond : Plafond et visibilité OK (CAVOK)
Température: 15 °C
Point de rosée: 13 °C
Humidité: 88%
Pression (QNH): 1009 hPa
TAF de LFLS
LFLS 231900Z 2319/2415 CNL

Conditions prévues :

Heure d'émission : Bulletin éffectué le 23 à 19:00 UTC
Prévision : Valide du 23 a 19:00 UTC au 24 a 15:00 UTC
Nuages : à 0ft (0 m)
WEBCAM POUR SAINT-MARCELLIN

Réglementation

Voler en sécurité

CARTES AERONAUTIQUE 1/500.000
CARTES VAC (LFLS)
SUP AIP




Chargement des AIP...
NOTAM (SAINT-MARCELLIN + Terrain à proximité / FIR )




Chargement des NOTAMS...
CONTACT PREFECTURE 38


Avertissement : Les données mises à disposition sont indicatives. Oxygène Drone ne pourra être tenu responsable de dégâts causés aux biens et aux personnes.